createdAt,value
2022-07-27T00:01:52.042Z,98739.59
2022-07-27T00:04:58.195Z,98734.75
2022-07-27T00:08:04.415Z,98736.88
2022-07-27T00:11:11.750Z,98734.40
2022-07-27T00:14:17.906Z,98734.62
2022-07-27T00:17:24.391Z,98727.90
2022-07-27T00:20:31.385Z,98723.48
2022-07-27T00:23:37.595Z,98720.88
2022-07-27T00:26:43.970Z,98715.55
2022-07-27T00:29:50.191Z,98714.46
2022-07-27T00:32:57.280Z,98714.83
2022-07-27T00:36:03.554Z,98719.41
2022-07-27T00:39:09.999Z,98723.35
2022-07-27T00:42:16.415Z,98723.33
2022-07-27T00:45:22.754Z,98727.77
2022-07-27T00:48:29.386Z,98729.81
2022-07-27T00:51:35.906Z,98731.21
2022-07-27T00:54:42.143Z,98731.06
2022-07-27T00:57:59.111Z,98735.08
2022-07-27T01:01:06.106Z,98734.17
2022-07-27T01:04:12.350Z,98730.05
2022-07-27T01:07:18.794Z,98727.27
2022-07-27T01:10:25.118Z,98730.65
2022-07-27T01:13:31.641Z,98733.61
2022-07-27T01:16:37.903Z,98739.93
2022-07-27T01:19:44.427Z,98741.81
2022-07-27T01:22:50.932Z,98743.34
2022-07-27T01:25:57.141Z,98739.52
2022-07-27T01:29:04.155Z,98739.19
2022-07-27T01:32:10.685Z,98733.21
2022-07-27T01:35:16.819Z,98728.95
2022-07-27T01:38:21.351Z,98723.70
2022-07-27T01:41:27.563Z,98730.23
2022-07-27T01:44:33.758Z,98726.84
2022-07-27T01:47:39.909Z,98719.52
2022-07-27T01:50:47.526Z,98725.21
2022-07-27T01:53:54.158Z,98725.39
2022-07-27T01:56:58.550Z,98725.02
2022-07-27T02:00:05.483Z,98722.54
2022-07-27T02:03:12.831Z,98727.42
2022-07-27T02:06:19.119Z,98729.66
2022-07-27T02:09:25.995Z,98733.17
2022-07-27T02:12:38.517Z,98731.96
2022-07-27T02:15:44.816Z,98726.38
2022-07-27T02:18:50.972Z,98728.90
2022-07-27T02:21:55.667Z,98727.32
2022-07-27T02:25:01.849Z,98729.25
2022-07-27T02:28:06.767Z,98724.44
2022-07-27T02:31:12.907Z,98721.78
2022-07-27T02:34:17.533Z,98722.51
2022-07-27T02:37:23.898Z,98727.02
2022-07-27T02:40:30.137Z,98726.96
2022-07-27T02:43:36.384Z,98728.70
2022-07-27T02:46:42.496Z,98733.20
2022-07-27T02:49:46.983Z,98733.15
2022-07-27T02:52:53.243Z,98738.30
2022-07-27T02:55:59.707Z,98743.92
2022-07-27T02:59:05.903Z,98752.86
2022-07-27T03:02:10.384Z,98752.21
2022-07-27T03:05:16.480Z,98749.85
2022-07-27T03:08:21.039Z,98754.90
2022-07-27T03:11:27.222Z,98758.67
2022-07-27T03:14:31.901Z,98762.05
2022-07-27T03:17:37.990Z,98761.02
2022-07-27T03:20:42.478Z,98758.87
2022-07-27T03:23:48.701Z,98757.77
2022-07-27T03:26:54.882Z,98760.38
2022-07-27T03:29:59.502Z,98762.45
2022-07-27T03:33:05.782Z,98770.14
2022-07-27T03:36:12.210Z,98775.57
2022-07-27T03:39:18.822Z,98779.26
2022-07-27T03:42:25.254Z,98780.77
2022-07-27T03:45:32.709Z,98776.78
2022-07-27T03:48:39.076Z,98777.50
2022-07-27T03:51:45.741Z,98774.99
2022-07-27T03:54:52.297Z,98783.19
2022-07-27T03:57:58.731Z,98790.17
2022-07-27T04:01:05.129Z,98788.48
2022-07-27T04:04:11.442Z,98786.77
2022-07-27T04:07:17.803Z,98788.52
2022-07-27T04:10:24.252Z,98794.28
2022-07-27T04:13:33.957Z,98796.61
2022-07-27T04:16:42.426Z,98795.27
2022-07-27T04:19:48.645Z,98799.16
2022-07-27T04:22:53.154Z,98802.73
2022-07-27T04:25:59.567Z,98800.30
2022-07-27T04:29:06.001Z,98806.27
2022-07-27T04:32:12.211Z,98813.21
2022-07-27T04:35:22.588Z,98807.64
2022-07-27T04:38:31.987Z,98805.60
2022-07-27T04:41:36.531Z,98805.40
2022-07-27T04:44:42.644Z,98806.82
2022-07-27T04:47:47.235Z,98808.52
2022-07-27T04:50:53.363Z,98810.83
2022-07-27T04:53:58.487Z,98815.21
2022-07-27T04:57:05.194Z,98818.62
2022-07-27T05:00:13.897Z,98813.14
2022-07-27T05:03:20.066Z,98814.91
2022-07-27T05:06:26.571Z,98812.99
2022-07-27T05:09:32.716Z,98813.98
2022-07-27T05:12:39.296Z,98815.95
2022-07-27T05:15:54.703Z,98817.98
2022-07-27T05:19:01.923Z,98818.63
2022-07-27T05:22:08.154Z,98819.77
2022-07-27T05:25:14.962Z,98814.43
2022-07-27T05:28:21.178Z,98812.27
2022-07-27T05:31:27.419Z,98808.01
2022-07-27T05:34:33.842Z,98812.81
2022-07-27T05:37:40.138Z,98815.56
2022-07-27T05:40:48.196Z,98819.67
2022-07-27T05:43:55.578Z,98826.23
2022-07-27T05:47:01.767Z,98831.70
2022-07-27T05:50:12.968Z,98831.23
2022-07-27T05:53:19.202Z,98832.66
2022-07-27T05:56:25.358Z,98836.34
2022-07-27T05:59:32.846Z,98837.28
2022-07-27T06:02:38.876Z,98831.66
2022-07-27T06:05:45.009Z,98830.27
2022-07-27T06:08:51.264Z,98823.40
2022-07-27T06:11:57.356Z,98825.84
2022-07-27T06:15:03.826Z,98824.40
2022-07-27T06:18:18.396Z,98828.28
2022-07-27T06:21:28.180Z,98828.06
2022-07-27T06:24:34.404Z,98828.38
2022-07-27T06:27:40.669Z,98833.45
2022-07-27T06:30:46.921Z,98831.89
2022-07-27T06:33:53.941Z,98838.48
2022-07-27T06:37:02.169Z,98848.16
2022-07-27T06:40:10.051Z,98848.54
2022-07-27T06:43:16.205Z,98846.00
2022-07-27T06:46:22.401Z,98845.95
2022-07-27T06:49:28.713Z,98845.06
2022-07-27T06:52:35.322Z,98845.67
2022-07-27T06:55:41.893Z,98847.39
2022-07-27T06:58:48.650Z,98847.12
2022-07-27T07:01:54.879Z,98848.13
2022-07-27T07:05:01.097Z,98843.07
2022-07-27T07:08:11.843Z,98840.36
2022-07-27T07:11:18.207Z,98841.44
2022-07-27T07:14:26.977Z,98837.73
2022-07-27T07:17:33.196Z,98841.27
2022-07-27T07:20:40.124Z,98841.17
2022-07-27T07:23:46.259Z,98845.83
2022-07-27T07:26:52.455Z,98852.55
2022-07-27T07:29:59.248Z,98855.76
2022-07-27T07:33:05.574Z,98861.31
2022-07-27T07:36:13.928Z,98869.11
2022-07-27T07:39:21.021Z,98876.86
2022-07-27T07:42:27.331Z,98880.86
2022-07-27T07:45:35.404Z,98892.04
2022-07-27T07:48:43.531Z,98887.19
2022-07-27T07:51:49.795Z,98890.69
2022-07-27T07:54:55.992Z,98892.58
2022-07-27T07:58:02.095Z,98894.98
2022-07-27T08:01:08.319Z,98893.57
2022-07-27T08:04:14.472Z,98895.39
2022-07-27T08:07:20.655Z,98898.10
2022-07-27T08:10:28.412Z,98895.71
2022-07-27T08:13:34.567Z,98895.54
2022-07-27T08:16:40.900Z,98893.30
2022-07-27T08:19:47.142Z,98889.81
2022-07-27T08:22:53.258Z,98900.42
2022-07-27T08:26:04.102Z,98905.57
2022-07-27T08:29:14.235Z,98909.96
2022-07-27T08:32:21.442Z,98918.30
2022-07-27T08:35:29.194Z,98915.77
2022-07-27T08:38:35.412Z,98917.01
2022-07-27T08:41:43.111Z,98912.45
2022-07-27T08:44:49.659Z,98915.52
2022-07-27T08:47:56.916Z,98920.00
2022-07-27T08:51:03.131Z,98917.42
2022-07-27T08:54:09.888Z,98910.68
2022-07-27T08:57:16.228Z,98914.75
2022-07-27T09:00:23.625Z,98910.98
2022-07-27T09:03:29.956Z,98907.73
2022-07-27T09:06:54.114Z,98907.73
2022-07-27T09:10:01.123Z,98906.70
2022-07-27T09:13:21.425Z,98895.54
2022-07-27T09:17:14.873Z,98894.03
2022-07-27T09:20:01.887Z,98899.88
2022-07-27T09:23:07.974Z,98902.33
2022-07-27T09:26:30.629Z,98900.98
2022-07-27T09:29:39.373Z,98904.40
2022-07-27T09:32:55.442Z,98903.89
2022-07-27T09:36:02.167Z,98904.84
2022-07-27T09:39:08.966Z,98898.45
2022-07-27T09:43:03.818Z,98894.61
2022-07-27T09:45:51.237Z,98897.42
2022-07-27T09:48:58.492Z,98887.13
2022-07-27T09:52:05.889Z,98881.95
2022-07-27T09:55:13.015Z,98882.17
2022-07-27T09:58:19.228Z,98881.05
2022-07-27T10:01:26.522Z,98880.77
2022-07-27T10:04:35.716Z,98876.77
2022-07-27T10:07:42.171Z,98879.55
2022-07-27T10:10:48.351Z,98874.86
2022-07-27T10:13:56.510Z,98870.81
2022-07-27T10:17:03.767Z,98874.63
2022-07-27T10:20:13.501Z,98869.19
2022-07-27T10:23:30.439Z,98871.58
2022-07-27T10:26:38.899Z,98874.06
2022-07-27T10:29:47.508Z,98868.22
2022-07-27T10:32:53.671Z,98867.20
2022-07-27T10:36:02.563Z,98868.30
2022-07-27T10:39:09.747Z,98862.23
2022-07-27T10:42:30.045Z,98861.80
2022-07-27T10:45:52.625Z,98865.17
2022-07-27T10:49:21.857Z,98863.55
2022-07-27T10:52:45.125Z,98860.57
2022-07-27T10:55:52.454Z,98865.31
2022-07-27T10:58:58.651Z,98860.25
2022-07-27T11:02:06.029Z,98864.02
2022-07-27T11:05:48.431Z,98861.23
2022-07-27T11:08:46.946Z,98857.24
2022-07-27T11:11:56.022Z,98855.75
2022-07-27T11:15:02.331Z,98853.45
2022-07-27T11:18:08.651Z,98852.52
2022-07-27T11:21:25.831Z,98842.05
2022-07-27T11:24:35.228Z,98847.48
2022-07-27T11:27:51.576Z,98841.39
2022-07-27T11:30:57.871Z,98839.79
2022-07-27T11:34:04.183Z,98834.41
2022-07-27T11:37:19.395Z,98836.99
2022-07-27T11:40:53.861Z,98827.67
2022-07-27T11:43:50.222Z,98821.79
2022-07-27T11:47:01.568Z,98816.77
2022-07-27T11:50:14.474Z,98812.64
2022-07-27T11:53:24.265Z,98816.29
2022-07-27T11:56:33.615Z,98816.10
2022-07-27T11:59:40.639Z,98816.86
2022-07-27T12:02:53.120Z,98815.36
2022-07-27T12:06:00.766Z,98808.47
2022-07-27T12:09:08.167Z,98810.90
2022-07-27T12:12:16.694Z,98803.34
2022-07-27T12:18:49.808Z,98794.77
2022-07-27T12:21:56.431Z,98797.15
2022-07-27T12:25:11.296Z,98795.05
2022-07-27T12:28:28.073Z,98792.96
2022-07-27T12:31:34.388Z,98796.73
2022-07-27T12:34:40.598Z,98793.64
2022-07-27T12:37:46.823Z,98789.02
2022-07-27T12:41:00.862Z,98788.10
2022-07-27T12:44:12.674Z,98783.86
2022-07-27T12:47:43.191Z,98783.81
2022-07-27T12:50:57.959Z,98783.19
2022-07-27T12:54:04.225Z,98779.59
2022-07-27T12:57:10.476Z,98780.49
2022-07-27T13:00:18.656Z,98786.90
2022-07-27T13:03:24.864Z,98789.22
2022-07-27T13:06:31.374Z,98791.88
2022-07-27T13:10:03.051Z,98791.86
2022-07-27T13:13:06.016Z,98797.05
2022-07-27T13:16:12.276Z,98798.54
2022-07-27T13:19:18.532Z,98792.83
2022-07-27T13:22:24.644Z,98792.85
2022-07-27T13:25:30.831Z,98788.22
2022-07-27T13:28:36.912Z,98785.13
2022-07-27T13:31:49.224Z,98779.97
2022-07-27T13:34:58.948Z,98778.99
2022-07-27T13:38:05.206Z,98783.31
2022-07-27T13:41:11.451Z,98785.26
2022-07-27T13:44:41.806Z,98776.95
2022-07-27T13:47:44.429Z,98776.33
2022-07-27T13:50:50.704Z,98771.79
2022-07-27T13:53:56.897Z,98775.32
2022-07-27T13:57:02.946Z,98771.18
2022-07-27T14:00:11.403Z,98766.16
2022-07-27T14:03:17.515Z,98767.86
2022-07-27T14:06:25.758Z,98767.57
2022-07-27T14:09:46.271Z,98761.88
2022-07-27T14:12:58.344Z,98754.59
2022-07-27T14:16:06.914Z,98752.98
2022-07-27T14:19:13.778Z,98753.09
2022-07-27T14:22:20.256Z,98758.80
2022-07-27T14:25:26.442Z,98754.57
2022-07-27T14:28:32.559Z,98753.57
2022-07-27T14:31:38.878Z,98751.41
2022-07-27T14:34:45.073Z,98752.98
2022-07-27T14:37:51.274Z,98751.34
2022-07-27T14:40:57.777Z,98741.27
2022-07-27T14:44:04.754Z,98746.04
2022-07-27T14:47:11.118Z,98741.24
2022-07-27T14:50:17.389Z,98741.58
2022-07-27T14:53:23.541Z,98739.48
2022-07-27T14:56:29.755Z,98740.91
2022-07-27T14:59:36.253Z,98742.41
2022-07-27T15:02:42.746Z,98740.52
2022-07-27T15:05:49.675Z,98741.83
2022-07-27T15:08:56.970Z,98737.02
2022-07-27T15:12:03.151Z,98732.35
2022-07-27T15:15:11.454Z,98729.70
2022-07-27T15:18:19.481Z,98726.30
2022-07-27T15:21:25.862Z,98721.82
2022-07-27T15:24:36.444Z,98719.77
2022-07-27T15:27:44.546Z,98718.00
2022-07-27T15:30:50.594Z,98718.13
2022-07-27T15:33:56.775Z,98719.52
2022-07-27T15:37:03.763Z,98723.17
2022-07-27T15:40:29.658Z,98733.76
2022-07-27T15:43:35.894Z,98729.13
2022-07-27T15:46:43.137Z,98728.55
2022-07-27T15:49:49.483Z,98726.66
2022-07-27T15:52:55.626Z,98720.83
2022-07-27T15:56:01.802Z,98721.19
2022-07-27T15:59:07.886Z,98723.91
2022-07-27T16:02:14.542Z,98727.42
2022-07-27T16:05:20.706Z,98724.57
2022-07-27T16:08:29.955Z,98723.73
2022-07-27T16:11:36.231Z,98722.09
2022-07-27T16:14:42.462Z,98722.70
2022-07-27T16:17:48.631Z,98717.32
2022-07-27T16:20:54.870Z,98720.31
2022-07-27T16:24:01.475Z,98717.81
2022-07-27T16:27:08.059Z,98720.37
2022-07-27T16:30:20.597Z,98723.02
2022-07-27T16:33:27.382Z,98720.13
2022-07-27T16:36:38.607Z,98722.34
2022-07-27T16:39:45.858Z,98719.74
2022-07-27T16:42:52.295Z,98722.81
2022-07-27T16:46:02.990Z,98722.38
2022-07-27T16:49:09.341Z,98718.66
2022-07-27T16:52:15.610Z,98719.12
2022-07-27T16:55:22.632Z,98713.93
2022-07-27T16:58:34.103Z,98711.33
2022-07-27T17:01:40.502Z,98711.81
2022-07-27T17:04:47.030Z,98716.06
2022-07-27T17:07:54.339Z,98712.11
2022-07-27T17:11:02.386Z,98712.73
2022-07-27T17:14:08.909Z,98711.13
2022-07-27T17:17:16.493Z,98719.23
2022-07-27T17:20:34.896Z,98724.98
2022-07-27T17:23:42.031Z,98725.86
2022-07-27T17:26:48.190Z,98723.63
2022-07-27T17:29:54.293Z,98721.29
2022-07-27T17:33:00.455Z,98725.20
2022-07-27T17:36:12.278Z,98723.84
2022-07-27T17:39:21.982Z,98728.93
2022-07-27T17:42:28.186Z,98731.33
2022-07-27T17:45:34.279Z,98735.75
2022-07-27T17:48:41.395Z,98735.80
2022-07-27T17:51:47.621Z,98733.48
2022-07-27T17:54:53.813Z,98732.46
2022-07-27T17:57:59.890Z,98739.46
2022-07-27T18:01:06.519Z,98736.35
2022-07-27T18:04:13.062Z,98741.96
2022-07-27T18:07:19.465Z,98744.06
2022-07-27T18:10:25.968Z,98747.80
2022-07-27T18:13:38.791Z,98741.46
2022-07-27T18:16:45.938Z,98745.50
2022-07-27T18:19:52.160Z,98748.95
2022-07-27T18:22:58.988Z,98751.64
2022-07-27T18:26:05.499Z,98755.67
2022-07-27T18:29:12.005Z,98755.36
2022-07-27T18:32:18.355Z,98762.50
2022-07-27T18:35:24.467Z,98767.64
2022-07-27T18:38:30.684Z,98777.39
2022-07-27T18:41:38.511Z,98778.46
2022-07-27T18:44:44.686Z,98781.93
2022-07-27T18:47:50.857Z,98784.46
2022-07-27T18:50:57.022Z,98785.16
2022-07-27T18:54:03.990Z,98791.40
2022-07-27T18:57:10.286Z,98793.36
2022-07-27T19:00:17.731Z,98793.75
2022-07-27T19:03:24.824Z,98799.05
2022-07-27T19:06:34.186Z,98795.95
2022-07-27T19:09:41.931Z,98799.66
2022-07-27T19:12:48.738Z,98802.97
2022-07-27T19:15:54.962Z,98801.98
2022-07-27T19:19:01.729Z,98802.30
2022-07-27T19:22:08.406Z,98804.67
2022-07-27T19:25:16.067Z,98808.52
2022-07-27T19:28:23.004Z,98814.17
2022-07-27T19:31:29.812Z,98826.66
2022-07-27T19:34:36.876Z,98833.89
2022-07-27T19:37:43.079Z,98839.83
2022-07-27T19:41:00.204Z,98846.85
2022-07-27T19:44:06.880Z,98858.27
2022-07-27T19:47:13.351Z,98868.27
2022-07-27T19:50:19.635Z,98862.31
2022-07-27T19:53:25.825Z,98866.27
2022-07-27T19:56:37.092Z,98868.97
2022-07-27T19:59:54.943Z,98871.02
2022-07-27T20:03:03.339Z,98874.34
2022-07-27T20:06:11.306Z,98871.04
2022-07-27T20:09:17.766Z,98871.17
2022-07-27T20:12:23.923Z,98867.91
2022-07-27T20:15:30.518Z,98869.00
2022-07-27T20:18:37.703Z,98874.25
2022-07-27T20:21:43.811Z,98878.00
2022-07-27T20:24:50.015Z,98882.48
2022-07-27T20:27:56.193Z,98878.70
2022-07-27T20:31:02.369Z,98887.33
2022-07-27T20:34:08.711Z,98893.63
2022-07-27T20:37:14.903Z,98893.27
2022-07-27T20:40:21.342Z,98896.55
2022-07-27T20:43:28.210Z,98894.98
2022-07-27T20:46:34.723Z,98900.38
2022-07-27T20:49:41.058Z,98905.31
2022-07-27T20:52:48.137Z,98913.52
2022-07-27T20:55:54.463Z,98915.36
2022-07-27T20:59:00.624Z,98917.27
2022-07-27T21:02:07.781Z,98913.95
2022-07-27T21:05:14.473Z,98920.92
2022-07-27T21:08:20.594Z,98922.54
2022-07-27T21:11:27.243Z,98916.53
2022-07-27T21:14:33.394Z,98907.91
2022-07-27T21:17:39.536Z,98908.41
2022-07-27T21:20:45.701Z,98911.44
2022-07-27T21:24:09.623Z,98912.09
2022-07-27T21:27:15.963Z,98919.38
2022-07-27T21:30:27.376Z,98921.91
2022-07-27T21:33:39.172Z,98925.73
2022-07-27T21:36:47.022Z,98928.88
2022-07-27T21:39:53.235Z,98934.34
2022-07-27T21:42:59.475Z,98940.97
2022-07-27T21:46:05.710Z,98942.45
2022-07-27T21:49:13.497Z,98939.34
2022-07-27T21:52:19.751Z,98943.86
2022-07-27T21:55:26.355Z,98942.82
2022-07-27T21:58:32.583Z,98946.05
2022-07-27T22:01:40.150Z,98951.77
2022-07-27T22:04:46.606Z,98951.08
2022-07-27T22:07:53.519Z,98948.40
2022-07-27T22:11:00.021Z,98949.75
2022-07-27T22:14:06.326Z,98955.01
2022-07-27T22:17:12.593Z,98956.97
2022-07-27T22:20:18.946Z,98959.98
2022-07-27T22:23:25.388Z,98965.10
2022-07-27T22:26:31.651Z,98961.79
2022-07-27T22:29:38.027Z,98967.86
2022-07-27T22:32:44.397Z,98966.39
2022-07-27T22:35:50.726Z,98967.89
2022-07-27T22:38:57.105Z,98969.27
2022-07-27T22:42:03.764Z,98971.09
2022-07-27T22:45:11.814Z,98975.59
2022-07-27T22:48:18.114Z,98977.34
2022-07-27T22:51:24.436Z,98975.70
2022-07-27T22:54:33.466Z,98979.19
2022-07-27T22:57:39.545Z,98976.88
2022-07-27T23:00:45.877Z,98982.45
2022-07-27T23:03:52.554Z,98986.20
2022-07-27T23:06:59.203Z,98989.65
2022-07-27T23:10:05.915Z,98988.11
2022-07-27T23:13:12.839Z,98987.48
2022-07-27T23:16:19.610Z,98989.48
2022-07-27T23:19:26.000Z,98989.73
2022-07-27T23:22:32.381Z,98989.89
2022-07-27T23:25:40.596Z,98988.87
2022-07-27T23:28:46.874Z,98992.63
2022-07-27T23:31:53.498Z,98997.47
2022-07-27T23:34:59.908Z,99000.63
2022-07-27T23:38:06.717Z,99004.73
2022-07-27T23:41:12.977Z,99011.22
2022-07-27T23:44:19.167Z,99018.04
2022-07-27T23:47:25.520Z,99016.02
2022-07-27T23:50:32.303Z,99016.91
2022-07-27T23:53:38.589Z,99015.52
2022-07-27T23:56:44.824Z,99019.23
2022-07-27T23:59:51.113Z,99018.84
